Flight Track Log - Related Links

Times and Time Zones

All times are in EDT time to prevent confusion due to time zone crossing. See the PDT4226 flight status page for this flight to view local times or setup timezone preferences in your user account.

Time Position Orientation Groundspeed Altitude Reporting Facility
EDT Latitude Longitude Course Direction KTS MPH feet Rate Location/Type
Mon 02:24:00 PM 41.9875 -75.9074 180° South  Level Estimated
Mon 02:25:00 PM 41.9119 -75.9156 185° South  Level FlightAware Approximate
Mon 02:26:00 PM 41.8385 -75.8906 154° Southeast  Level Estimated
Mon 02:27:00 PM 41.7650 -75.8656 160° South  Level Estimated
Mon 02:28:00 PM 41.6915 -75.8406 159° South  Level Estimated
Mon 02:29:00 PM 41.6167 -75.8247 171° South  Level FlightAware Approximate
Mon 02:30:00 PM 41.5433 -75.7995 161° South  Level Estimated
Mon 02:31:00 PM 41.4710 -75.7690 162° South  Level FlightAware Approximate
Mon 02:32:00 PM 41.3987 -75.7386 162° South  Level FlightAware Approximate
Mon 02:33:00 PM 41.3252 -75.7141 162° South  Level Estimated
Mon 02:34:00 PM 41.2535 -75.6815 161° South  Level FlightAware Approximate
Mon 02:35:00 PM 41.1817 -75.6489 161° South  Level FlightAware Approximate
Mon 02:36:00 PM 41.1100 -75.6164 161° South  Level FlightAware Approximate
Mon 02:37:00 PM 41.0362 -75.5936 163° South  Level Estimated
Mon 02:38:00 PM 40.9644 -75.5612 161° South  Level FlightAware Approximate
Mon 02:39:00 PM 40.8927 -75.5289 161° South  Level FlightAware Approximate
Mon 02:40:00 PM 40.8209 -75.4967 161° South  Level FlightAware Approximate
Mon 02:41:00 PM 40.7467 -75.4764 190° South  Level Estimated
Mon 02:42:00 PM 40.6711 -75.4837 184° South  Level FlightAware Approximate
Mon 02:43:00 PM 40.5955 -75.4909 184° South  Level FlightAware Approximate
Mon 02:44:00 PM 40.5223 -75.4653 187° South  Level Estimated
Mon 02:45:00 PM 40.4490 -75.4398 190° South  Level Estimated
Mon 02:46:00 PM 40.3792 -75.4785 203° Southwest  Level FlightAware Approximate
Mon 02:47:00 PM 40.3078 -75.4449 180° South  Level Estimated
Mon 02:48:00 PM 40.2365 -75.4113 143° Southeast  Level Estimated
Mon 02:48:23 PM 40.5667 -75.5500 150° Southeast 266 306 5,800  Level Philadelphia TRACON
Mon 02:49:00 PM 40.1652 -75.3777 143° Southeast  Level Estimated
Mon 02:49:18 PM 40.5000 -75.5500 180° South 271 312 5,000  Level Philadelphia TRACON
Mon 02:50:00 PM 40.0938 -75.3443 143° Southeast  Level Estimated
Mon 02:50:24 PM 40.4167 -75.5333 171° South 243 280 5,000  Level Philadelphia TRACON
Mon 02:51:00 PM 40.0225 -75.3109 159° South  Level Estimated
Mon 02:51:18 PM 40.3667 -75.5167 166° South 238 274 5,000  Level Philadelphia TRACON
Mon 02:52:00 PM 39.9511 -75.2776 150° Southeast  Level Estimated
Mon 02:52:18 PM 40.3000 -75.5000 169° South 237 273 4,800  Level Philadelphia TRACON
Mon 02:53:00 PM 39.8797 -75.2443 150° Southeast  Level Estimated
Mon 02:53:18 PM 40.2333 -75.4667 159° South 257 296 4,000  Level Philadelphia TRACON
Mon 02:54:24 PM 40.1667 -75.4333 159° South 230 265 4,000  Level Philadelphia TRACON
Mon 02:55:18 PM 40.1167 -75.4167 166° South 210 242 4,000  Level Philadelphia TRACON
Mon 02:56:24 PM 40.0500 -75.4000 169° South 211 243 4,000  Level Philadelphia TRACON
Mon 02:57:24 PM 39.9833 -75.3833 169° South 210 242 4,000  Level Philadelphia TRACON
Mon 02:58:24 PM 39.9333 -75.3667 166° South 211 243 4,000  Level Philadelphia TRACON
Mon 02:59:24 PM 39.8833 -75.3500 166° South 210 242 4,000  Level Philadelphia TRACON
Mon 03:00:25 PM 39.8167 -75.3333 169° South 211 243 4,000 -100 Level Philadelphia TRACON
Mon 03:01:24 PM 39.7667 -75.3000 153° Southeast 209 241 3,800 -842 Descending Philadelphia TRACON
Mon 03:02:19 PM 39.7667 -75.2500 90° East 184 212 2,400 -939 Descending Philadelphia TRACON
Mon 03:03:19 PM 39.7833 -75.2000 67° East 177 204 2,000 -474 Descending Philadelphia TRACON
Mon 03:04:13 PM 39.8167 -75.2000 360° North 151 174 1,500 -800 Descending Philadelphia TRACON
Mon 03:05:19 PM 39.8667 -75.2167 346° North 134 154 400 -1,000 Descending Philadelphia TRACON

Login

Don't have an account? Register now (free) for customized features, flight alerts, and more!